MSC Federica — HPQE — position and weather

sailwx.info

Track history (hours):
 
Tides and Currents Weather Stations Pressure Air Temp Water Temp Dewpoint Dewpoint Depression Visibility Wind Speed Wind Dir Waves Ship Positions

MSC Federica

Last reported at 2016-Aug-05 06:34 UTC. Time now 2016-Aug-27 09:58 UTC.
Position S 32°60' W 071°43'.
Warning: this ship's position is 22 days out of date.

Length 294 m; draft 9.5 m.

Type: Ship (hazmat cat A). MMSI: 357363000.

Date/timePositionNaut miles runAvg speedWind from/ knotsBaromVisibWave heightAir tempDewpointWater temp
2016-Aug-05 06:34S 32°60' W 071°43'5 0.6
2016-Aug-04 22:15S 33°02' W 071°38'0 0.0
2016-Aug-04 21:24S 33°02' W 071°38'0 0.0
2016-Aug-04 20:16S 33°02' W 071°38'0 0.0
2016-Aug-04 19:33S 33°02' W 071°38'0 0.0
2016-Aug-04 18:24S 33°02' W 071°38'0 0.0
2016-Aug-04 17:21S 33°02' W 071°38'0 0.0
2016-Aug-04 16:33S 33°02' W 071°38'1 1.4
2016-Aug-04 15:33S 33°00' W 071°37'4 3.9
2016-Aug-04 14:34S 32°59' W 071°41'3 3.2
2016-Aug-04 13:33S 33°01' W 071°44'3 2.7
2016-Aug-04 12:33S 33°02' W 071°47'9 0.3
2016-Aug-03 03:23S 32°56' W 071°55'6 7.6
2016-Aug-03 02:33S 32°50' W 071°55'  
Track history (hours):
 
Tides and Currents Weather Stations Pressure Air Temp Water Temp Dewpoint Dewpoint Depression Visibility Wind Speed Wind Dir Waves Ship Positions

MSC Federica

Last reported at 2016-Aug-05 06:34 UTC. Time now 2016-Aug-27 09:58 UTC.
Position S 32°60' W 071°43'.
Warning: this ship's position is 22 days out of date.

Length 294 m; draft 9.5 m.

Type: Ship (hazmat cat A). MMSI: 357363000.

Date/timePositionNaut miles runAvg speedWind from/ knotsBaromVisibWave heightAir tempDewpointWater temp
2016-Aug-05 06:34S 32°60' W 071°43'5 0.6
2016-Aug-04 22:15S 33°02' W 071°38'0 0.0
2016-Aug-04 21:24S 33°02' W 071°38'0 0.0
2016-Aug-04 20:16S 33°02' W 071°38'0 0.0
2016-Aug-04 19:33S 33°02' W 071°38'0 0.0
2016-Aug-04 18:24S 33°02' W 071°38'0 0.0
2016-Aug-04 17:21S 33°02' W 071°38'0 0.0
2016-Aug-04 16:33S 33°02' W 071°38'1 1.4
2016-Aug-04 15:33S 33°00' W 071°37'4 3.9
2016-Aug-04 14:34S 32°59' W 071°41'3 3.2
2016-Aug-04 13:33S 33°01' W 071°44'3 2.7
2016-Aug-04 12:33S 33°02' W 071°47'9 0.3
2016-Aug-03 03:23S 32°56' W 071°55'6 7.6
2016-Aug-03 02:33S 32°50' W 071°55'  

Dump ship's entire track history